• Join FlightAware (Why Join?)
  • Login
  • US Flag 
03:31PM EDT


 

Airport Tracker/Info


-or-


 

Live Flight TrackerFlight Track Log ✈ SWA1728 ✈ 22-Apr-2013 ✈ KDEN - KMDW

Flight Track Log - Related Links

Times and Time Zones

All times are in EDT time to prevent confusion due to time zone crossing. See the SWA1728 flight status page for this flight to view local times or setup timezone preferences in your user account.

Time Position Orientation Groundspeed Altitude Reporting Facility
EDT Latitude Longitude Course Direction KTS MPH feet Rate Location/Type
06:37PM 39.9333 -104.6333 57° Northeast 223 257 8,100  Level Denver TRACON
06:38PM 39.9500 -104.5500 75° East 275 316 9,900 1,680 Climbing Denver TRACON
06:39PM 39.9500 -104.4500 90° East 323 372 11,400 1,740 Climbing Denver TRACON
06:41PM 39.9647 -104.2597 84° East 371 427 14,000 1,980 Climbing Denver Center
06:42PM 39.9758 -104.1081 84° East 391 450 16,300 2,040 Climbing Denver Center
06:43PM 40.0090 -103.7986 57° Northeast  Level FlightAware Approximate
06:43PM 39.9931 -103.9614 81° East 409 471 18,200  Level Denver Center
06:44PM 40.0144 -103.8075 80° East 422 486 20,200 2,040 Climbing Denver Center
06:45PM 40.0389 -103.6583 78° East 411 473 22,400 1,800 Climbing Denver Center
06:46PM 40.0672 -103.4989 77° East 445 512 24,000 1,380 Climbing Denver Center
06:47PM 40.0917 -103.3347 79° East 455 524 25,300 1,020 Climbing Denver Center
06:48PM 40.1200 -103.1608 78° East 481 554 26,400 1,200 Climbing Denver Center
06:49PM 40.1575 -102.9178 79° East 509 586 28,000 1,260 Climbing Denver Center
06:50PM 40.1881 -102.7289 78° East 525 604 29,100 1,080 Climbing Denver Center
06:51PM 40.2158 -102.5436 79° East 532 612 30,300 1,200 Climbing Denver Center
06:52PM 40.2456 -102.3597 78° East 540 621 31,600 1,320 Climbing Denver Center
06:53PM 40.2764 -102.1481 79° East 529 609 33,100 1,380 Climbing Denver Center
06:54PM 40.3036 -101.9672 79° East 528 608 34,500 900 Climbing Denver Center
06:55PM 40.3347 -101.7594 79° East 523 602 35,000 240 Climbing Denver Center
06:56PM 40.3625 -101.5739 79° East 539 620 35,000  Level Denver Center
06:57PM 40.3881 -101.3897 80° East 539 620 35,000  Level Denver Center
06:58PM 40.4186 -101.1781 79° East 532 612 35,000  Level Denver Center
06:59PM 40.4450 -100.9956 79° East 535 616 35,000  Level Denver Center
07:00PM 40.5000 -100.7994 70° East 522 601 35,000  Level Denver Center
07:02PM 40.5594 -100.6406 64° Northeast 513 590 35,000  Level Denver Center
07:03PM 40.6283 -100.4558 64° Northeast 510 587 35,000  Level Denver Center
07:04PM 40.7067 -100.2431 64° Northeast 511 588 35,000  Level Denver Center
07:05PM 40.7642 -100.0819 65° Northeast 511 588 35,000  Level Denver Center
07:06PM 40.8233 -99.9219 64° Northeast 510 587 35,000  Level Denver Center
07:07PM 40.8889 -99.7394 65° Northeast 509 586 35,000  Level Denver Center
07:08PM 40.9128 -99.5492 81° East 523 602 35,000  Level Denver Center
07:09PM 40.9247 -99.3594 85° East 523 602 35,000  Level Denver Center
07:10PM 40.9372 -99.1681 85° East 523 602 35,000  Level Denver Center
07:11PM 40.9461 -99.0175 85° East 523 602 35,000  Level Minneapolis Center
07:12PM 40.9583 -98.8258 85° East 524 603 35,000  Level Minneapolis Center
07:13PM 40.9703 -98.6353 85° East 522 601 35,000  Level Minneapolis Center
07:14PM 40.9822 -98.4164 86° East 520 598 35,000  Level Minneapolis Center
07:15PM 40.9928 -98.2275 86° East 518 596 35,000  Level Minneapolis Center
07:16PM 41.0033 -98.0392 86° East 516 594 35,000  Level Minneapolis Center
07:17PM 41.0133 -97.8500 86° East 515 593 35,000  Level Minneapolis Center
07:18PM 41.0233 -97.6625 86° East 513 590 35,000  Level Minneapolis Center
07:19PM 41.0319 -97.4750 86° East 511 588 35,000  Level Minneapolis Center
07:20PM 41.0428 -97.2803 86° East 509 586 35,000  Level Minneapolis Center
07:21PM 41.0517 -97.0950 86° East 506 582 35,000  Level Minneapolis Center
07:22PM 41.0592 -96.9100 87° East 505 581 35,000  Level Minneapolis Center
07:23PM 41.0692 -96.6886 86° East 503 579 35,000  Level Minneapolis Center
07:24PM 41.0781 -96.5050 86° East 503 579 35,000  Level Minneapolis Center
07:25PM 41.0864 -96.3233 86° East 500 575 35,000  Level Minneapolis Center
07:26PM 41.0933 -96.1431 87° East 498 573 35,000  Level Minneapolis Center
07:27PM 41.0992 -95.9639 87° East 496 571 35,000  Level Minneapolis Center
07:28PM 41.1064 -95.7475 87° East 496 571 35,000  Level Minneapolis Center
07:29PM 41.1128 -95.5669 87° East 494 568 35,000  Level Minneapolis Center
07:30PM 41.1194 -95.3872 87° East 493 567 35,000  Level Minneapolis Center
07:31PM 41.1244 -95.2081 88° East 489 563 35,000  Level Minneapolis Center
07:32PM 41.1303 -95.0308 87° East 485 558 35,000  Level Minneapolis Center
07:33PM 41.1350 -94.8533 88° East 484 557 35,000  Level Minneapolis Center
07:34PM 41.1389 -94.6419 89° East 480 552 35,000  Level Minneapolis Center
07:35PM 41.1436 -94.4669 88° East 476 548 35,000  Level Minneapolis Center
07:36PM 41.1492 -94.2933 88° East 474 545 35,000  Level Minneapolis Center
07:37PM 41.1517 -94.1194 89° East 471 542 35,000  Level Minneapolis Center
07:38PM 41.1544 -93.9458 89° East 472 543 35,000  Level Minneapolis Center
07:39PM 41.1581 -93.7736 88° East 471 542 35,000  Level Minneapolis Center
07:40PM 41.1617 -93.6017 88° East 470 541 35,000  Level Minneapolis Center
07:41PM 41.1658 -93.3958 88° East 469 540 35,000  Level Minneapolis Center
07:43PM 41.1681 -93.2253 89° East 465 535 35,000  Level Minneapolis Center
07:44PM 41.1706 -93.0556 89° East 464 534 35,000  Level Minneapolis Center
07:45PM 41.1719 -92.8858 89° East 463 533 35,000  Level Minneapolis Center
07:46PM 41.1742 -92.7156 89° East 463 533 35,000  Level Minneapolis Center
07:46PM 41.1739 -92.5783 90° East 465 535 35,000  Level Chicago Center
07:47PM 41.1758 -92.4092 89° East 461 531 35,000 -240 Level Chicago Center
07:48PM 41.1767 -92.2394 90° East 461 531 34,600 -780 Descending Chicago Center
07:49PM 41.1775 -92.0350 90° East 464 534 33,500 -1,080 Descending Chicago Center
07:51PM 41.1781 -91.8642 90° East 465 535 32,500 -960 Descending Chicago Center
07:52PM 41.1789 -91.6942 90° East 464 534 31,600 -900 Descending Chicago Center
07:53PM 41.1789 -91.5303 90° East 472 543 30,700 -1,020 Descending Chicago Center
07:54PM 41.1794 -91.3219 90° East 472 543 29,600 -1,020 Descending Chicago Center
07:55PM 41.1775 -91.1486 91° East 470 541 28,600 -1,020 Descending Chicago Center
07:56PM 41.1764 -90.9800 90° East 460 529 27,600 -1,560 Descending Chicago Center
07:57PM 41.1756 -90.8150 90° East 449 517 25,500 -1,620 Descending Chicago Center
07:58PM 41.1750 -90.6608 90° East 426 490 24,300 -1,080 Descending Chicago Center
07:59PM 41.1733 -90.5108 91° East 410 472 23,300 -1,020 Descending Chicago Center
08:00PM 41.1719 -90.3286 91° East 409 471 22,200 -1,500 Descending Chicago Center
08:01PM 41.1694 -90.1789 91° East 407 468 20,200 -1,980 Descending Chicago Center
08:02PM 41.1672 -90.0336 91° East 395 455 18,200 -2,040 Descending Chicago Center
08:03PM 41.1650 -89.8947 91° East 377 434 16,100 -1,620 Descending Chicago Center
08:04PM 41.1633 -89.7592 91° East 367 422 15,000 -660 Descending Chicago Center
08:05PM 41.1653 -89.6292 89° East 353 406 14,800 -600 Descending Chicago Center
08:06PM 41.2031 -89.5039 68° East 367 422 13,800 -1,020 Descending Chicago Center
08:07PM 41.2406 -89.3775 68° East 366 421 12,800 -1,080 Descending Chicago Center
08:08PM 41.2764 -89.2569 68° East 349 402 11,700 -1,140 Descending Chicago Center
08:09PM 41.3133 -89.1203 70° East 332 382 10,500 -840 Descending Chicago Center
08:10PM 41.3467 -89.0078 68° East 328 377 10,000 -300 Descending Chicago Center
08:11PM 41.3803 -88.8933 69° East 332 382 9,900 -780 Descending Chicago Center
08:12PM 41.4097 -88.7936 68° East 301 346 8,500 -1,440 Descending Chicago Center
08:13PM 41.4375 -88.6906 70° East 296 341 7,000 -1,260 Descending Chicago Center
08:14PM 41.4586 -88.5897 74° East 287 330 5,900 -540 Descending Chicago Center
08:15PM 41.4850 -88.4694 74° East 283 326 5,900  Level Chicago Center
08:16PM 41.5058 -88.3708 74° East 278 320 6,000  Climbing Chicago Center
08:17PM 41.5269 -88.2714 74° East 278 320 5,900 -600 Descending Chicago Center
08:18PM 41.5492 -88.1703 74° East 281 323 4,800 -1,020 Descending Chicago Center
08:19PM 41.5703 -88.0756 73° East 270 311 3,900 -480 Descending Chicago Center
08:20PM 41.5944 -87.9919 69° East 256 295 3,900  Level Chicago Center
08:21PM 41.6444 -87.9306 43° Northeast 248 285 3,900 -600 Level Chicago Center
08:23PM 41.7000 -87.8500 47° Northeast 226 260 2,700 -1,080 Descending Chicago TRACON
08:24PM 41.7333 -87.8000 48° Northeast 177 204 1,700 -900 Descending Chicago TRACON
08:24PM 41.7667 -87.7833 20° North 146 168 1,000 -780 Descending Chicago TRACON